sensor_id;sensor_type;location;lat;lon;timestamp;P1;durP1;ratioP1;P2;durP2;ratioP2
59907;SDS011;61804;54.926;73.496;2023-06-22T00:01:50;0.82;;;0.35;;
59907;SDS011;61804;54.926;73.496;2023-06-22T00:04:18;1.77;;;0.68;;
59907;SDS011;61804;54.926;73.496;2023-06-22T00:06:45;0.82;;;0.70;;
59907;SDS011;61804;54.926;73.496;2023-06-22T00:09:13;0.50;;;0.50;;
59907;SDS011;61804;54.926;73.496;2023-06-22T00:11:40;1.45;;;0.57;;
59907;SDS011;61804;54.926;73.496;2023-06-22T00:14:08;3.90;;;0.93;;
59907;SDS011;61804;54.926;73.496;2023-06-22T00:16:37;0.75;;;0.75;;
59907;SDS011;61804;54.926;73.496;2023-06-22T00:19:05;1.73;;;1.10;;
59907;SDS011;61804;54.926;73.496;2023-06-22T00:21:32;0.70;;;0.70;;
59907;SDS011;61804;54.926;73.496;2023-06-22T00:24:00;1.65;;;0.73;;
59907;SDS011;61804;54.926;73.496;2023-06-22T00:26:27;3.50;;;0.98;;
59907;SDS011;61804;54.926;73.496;2023-06-22T00:28:55;4.13;;;1.45;;
59907;SDS011;61804;54.926;73.496;2023-06-22T00:31:24;3.40;;;0.82;;
59907;SDS011;61804;54.926;73.496;2023-06-22T00:33:54;2.03;;;1.60;;
59907;SDS011;61804;54.926;73.496;2023-06-22T00:36:22;0.73;;;0.57;;
59907;SDS011;61804;54.926;73.496;2023-06-22T00:38:51;0.65;;;0.65;;
59907;SDS011;61804;54.926;73.496;2023-06-22T00:41:18;0.80;;;0.77;;
59907;SDS011;61804;54.926;73.496;2023-06-22T00:43:46;1.52;;;1.10;;
59907;SDS011;61804;54.926;73.496;2023-06-22T00:46:13;4.00;;;1.98;;
59907;SDS011;61804;54.926;73.496;2023-06-22T00:48:44;2.05;;;1.27;;
59907;SDS011;61804;54.926;73.496;2023-06-22T00:51:11;2.20;;;1.73;;
59907;SDS011;61804;54.926;73.496;2023-06-22T00:53:39;1.77;;;1.27;;
59907;SDS011;61804;54.926;73.496;2023-06-22T00:56:09;2.40;;;1.67;;
59907;SDS011;61804;54.926;73.496;2023-06-22T00:58:38;3.22;;;1.30;;
59907;SDS011;61804;54.926;73.496;2023-06-22T01:01:08;2.95;;;2.13;;
59907;SDS011;61804;54.926;73.496;2023-06-22T01:03:35;3.05;;;1.30;;
59907;SDS011;61804;54.926;73.496;2023-06-22T01:06:07;3.83;;;1.70;;
59907;SDS011;61804;54.926;73.496;2023-06-22T01:08:49;0.90;;;0.90;;
59907;SDS011;61804;54.926;73.496;2023-06-22T01:11:53;9.55;;;1.52;;
59907;SDS011;61804;54.926;73.496;2023-06-22T01:14:18;3.08;;;1.48;;
59907;SDS011;61804;54.926;73.496;2023-06-22T01:16:49;2.30;;;1.30;;
59907;SDS011;61804;54.926;73.496;2023-06-22T01:22:05;1.98;;;0.88;;
59907;SDS011;61804;54.926;73.496;2023-06-22T01:27:38;5.75;;;1.48;;
59907;SDS011;61804;54.926;73.496;2023-06-22T01:30:13;1.83;;;1.20;;
59907;SDS011;61804;54.926;73.496;2023-06-22T01:32:43;1.58;;;1.10;;
59907;SDS011;61804;54.926;73.496;2023-06-22T01:35:11;3.35;;;1.83;;
59907;SDS011;61804;54.926;73.496;2023-06-22T01:37:40;6.45;;;1.10;;
59907;SDS011;61804;54.926;73.496;2023-06-22T01:40:08;3.72;;;1.50;;
59907;SDS011;61804;54.926;73.496;2023-06-22T01:42:39;7.75;;;1.98;;
59907;SDS011;61804;54.926;73.496;2023-06-22T01:45:08;8.60;;;1.50;;
59907;SDS011;61804;54.926;73.496;2023-06-22T01:47:38;5.07;;;2.17;;
59907;SDS011;61804;54.926;73.496;2023-06-22T01:50:06;22.42;;;2.20;;
59907;SDS011;61804;54.926;73.496;2023-06-22T01:52:34;2.17;;;1.30;;
59907;SDS011;61804;54.926;73.496;2023-06-22T01:55:02;0.85;;;0.82;;
59907;SDS011;61804;54.926;73.496;2023-06-22T01:57:31;1.27;;;1.17;;
59907;SDS011;61804;54.926;73.496;2023-06-22T02:00:03;3.03;;;1.00;;
59907;SDS011;61804;54.926;73.496;2023-06-22T02:02:46;1.33;;;1.10;;
59907;SDS011;61804;54.926;73.496;2023-06-22T02:05:17;2.00;;;1.63;;
59907;SDS011;61804;54.926;73.496;2023-06-22T02:07:57;5.32;;;1.73;;
59907;SDS011;61804;54.926;73.496;2023-06-22T02:10:27;1.05;;;1.05;;
59907;SDS011;61804;54.926;73.496;2023-06-22T02:12:58;3.80;;;1.40;;
59907;SDS011;61804;54.926;73.496;2023-06-22T02:15:25;8.55;;;1.55;;
59907;SDS011;61804;54.926;73.496;2023-06-22T02:17:55;4.13;;;1.52;;
59907;SDS011;61804;54.926;73.496;2023-06-22T02:20:24;5.55;;;2.28;;
59907;SDS011;61804;54.926;73.496;2023-06-22T02:22:51;3.65;;;1.48;;
59907;SDS011;61804;54.926;73.496;2023-06-22T02:25:19;1.33;;;0.70;;
59907;SDS011;61804;54.926;73.496;2023-06-22T02:27:47;2.35;;;1.67;;
59907;SDS011;61804;54.926;73.496;2023-06-22T02:30:20;1.77;;;1.33;;
59907;SDS011;61804;54.926;73.496;2023-06-22T02:32:47;2.40;;;1.80;;
59907;SDS011;61804;54.926;73.496;2023-06-22T02:35:16;5.60;;;1.85;;
59907;SDS011;61804;54.926;73.496;2023-06-22T02:37:45;1.50;;;1.35;;
59907;SDS011;61804;54.926;73.496;2023-06-22T02:40:13;1.67;;;1.58;;
59907;SDS011;61804;54.926;73.496;2023-06-22T02:42:41;4.95;;;1.63;;
59907;SDS011;61804;54.926;73.496;2023-06-22T02:45:09;9.48;;;1.38;;
59907;SDS011;61804;54.926;73.496;2023-06-22T02:47:36;1.23;;;1.13;;
59907;SDS011;61804;54.926;73.496;2023-06-22T02:50:03;0.95;;;0.82;;
59907;SDS011;61804;54.926;73.496;2023-06-22T02:52:34;1.27;;;1.17;;
59907;SDS011;61804;54.926;73.496;2023-06-22T02:55:02;8.25;;;2.60;;
59907;SDS011;61804;54.926;73.496;2023-06-22T02:57:30;2.28;;;2.08;;
59907;SDS011;61804;54.926;73.496;2023-06-22T02:59:58;7.28;;;2.42;;
59907;SDS011;61804;54.926;73.496;2023-06-22T03:02:26;11.63;;;2.63;;
59907;SDS011;61804;54.926;73.496;2023-06-22T03:04:54;1.80;;;1.70;;
59907;SDS011;61804;54.926;73.496;2023-06-22T03:07:21;1.95;;;1.58;;
59907;SDS011;61804;54.926;73.496;2023-06-22T03:09:50;2.45;;;1.92;;
59907;SDS011;61804;54.926;73.496;2023-06-22T03:12:18;4.35;;;1.67;;
59907;SDS011;61804;54.926;73.496;2023-06-22T03:14:51;3.15;;;1.77;;
59907;SDS011;61804;54.926;73.496;2023-06-22T03:17:18;1.83;;;1.45;;
59907;SDS011;61804;54.926;73.496;2023-06-22T03:19:46;6.40;;;1.33;;
59907;SDS011;61804;54.926;73.496;2023-06-22T03:22:13;3.40;;;1.65;;
59907;SDS011;61804;54.926;73.496;2023-06-22T03:24:41;2.85;;;1.90;;
59907;SDS011;61804;54.926;73.496;2023-06-22T03:27:09;7.60;;;2.50;;
59907;SDS011;61804;54.926;73.496;2023-06-22T03:29:37;7.70;;;2.08;;
59907;SDS011;61804;54.926;73.496;2023-06-22T03:32:04;2.50;;;1.88;;
59907;SDS011;61804;54.926;73.496;2023-06-22T03:34:35;5.32;;;2.35;;
59907;SDS011;61804;54.926;73.496;2023-06-22T03:37:05;1.95;;;1.83;;
59907;SDS011;61804;54.926;73.496;2023-06-22T03:39:34;2.83;;;1.88;;
59907;SDS011;61804;54.926;73.496;2023-06-22T03:42:01;1.95;;;1.58;;
59907;SDS011;61804;54.926;73.496;2023-06-22T03:44:28;4.38;;;2.42;;
59907;SDS011;61804;54.926;73.496;2023-06-22T03:46:56;2.33;;;1.98;;
59907;SDS011;61804;54.926;73.496;2023-06-22T03:49:23;4.47;;;1.67;;
59907;SDS011;61804;54.926;73.496;2023-06-22T03:51:50;5.20;;;2.25;;
59907;SDS011;61804;54.926;73.496;2023-06-22T03:54:17;3.45;;;1.95;;
59907;SDS011;61804;54.926;73.496;2023-06-22T03:56:46;3.00;;;2.40;;
59907;SDS011;61804;54.926;73.496;2023-06-22T03:59:13;4.97;;;2.15;;
59907;SDS011;61804;54.926;73.496;2023-06-22T04:01:41;3.35;;;1.77;;
59907;SDS011;61804;54.926;73.496;2023-06-22T04:04:08;6.20;;;2.20;;
59907;SDS011;61804;54.926;73.496;2023-06-22T04:06:35;2.97;;;2.00;;
59907;SDS011;61804;54.926;73.496;2023-06-22T04:09:03;2.58;;;1.60;;
59907;SDS011;61804;54.926;73.496;2023-06-22T04:11:31;8.38;;;1.67;;
59907;SDS011;61804;54.926;73.496;2023-06-22T04:13:58;5.00;;;2.97;;
59907;SDS011;61804;54.926;73.496;2023-06-22T04:16:27;5.90;;;2.13;;
59907;SDS011;61804;54.926;73.496;2023-06-22T04:18:56;1.75;;;1.50;;
59907;SDS011;61804;54.926;73.496;2023-06-22T04:21:23;3.95;;;2.30;;
59907;SDS011;61804;54.926;73.496;2023-06-22T04:23:50;3.97;;;1.95;;
59907;SDS011;61804;54.926;73.496;2023-06-22T04:26:18;1.83;;;1.35;;
59907;SDS011;61804;54.926;73.496;2023-06-22T04:28:47;3.78;;;1.63;;
59907;SDS011;61804;54.926;73.496;2023-06-22T04:31:22;4.50;;;1.37;;
59907;SDS011;61804;54.926;73.496;2023-06-22T04:33:59;6.53;;;1.38;;
59907;SDS011;61804;54.926;73.496;2023-06-22T04:36:36;1.63;;;1.50;;
59907;SDS011;61804;54.926;73.496;2023-06-22T04:39:05;5.55;;;1.83;;
59907;SDS011;61804;54.926;73.496;2023-06-22T04:41:36;2.22;;;1.58;;
59907;SDS011;61804;54.926;73.496;2023-06-22T04:44:10;3.35;;;1.70;;
59907;SDS011;61804;54.926;73.496;2023-06-22T04:46:38;1.30;;;0.98;;
59907;SDS011;61804;54.926;73.496;2023-06-22T04:49:06;2.58;;;1.25;;
59907;SDS011;61804;54.926;73.496;2023-06-22T04:51:40;2.03;;;1.25;;
59907;SDS011;61804;54.926;73.496;2023-06-22T04:54:08;1.20;;;0.80;;
59907;SDS011;61804;54.926;73.496;2023-06-22T04:56:36;1.75;;;1.13;;
59907;SDS011;61804;54.926;73.496;2023-06-22T04:59:04;4.20;;;1.35;;
59907;SDS011;61804;54.926;73.496;2023-06-22T05:01:31;1.48;;;0.60;;
59907;SDS011;61804;54.926;73.496;2023-06-22T05:03:58;1.13;;;0.77;;
59907;SDS011;61804;54.926;73.496;2023-06-22T05:06:27;2.08;;;1.02;;
59907;SDS011;61804;54.926;73.496;2023-06-22T05:08:55;1.38;;;1.10;;
59907;SDS011;61804;54.926;73.496;2023-06-22T05:11:28;0.70;;;0.70;;
59907;SDS011;61804;54.926;73.496;2023-06-22T05:13:57;3.20;;;1.58;;
59907;SDS011;61804;54.926;73.496;2023-06-22T05:16:24;7.57;;;1.52;;
59907;SDS011;61804;54.926;73.496;2023-06-22T05:18:52;4.07;;;1.77;;
59907;SDS011;61804;54.926;73.496;2023-06-22T05:21:25;4.22;;;2.30;;
59907;SDS011;61804;54.926;73.496;2023-06-22T05:23:53;2.95;;;1.65;;
59907;SDS011;61804;54.926;73.496;2023-06-22T05:26:22;2.58;;;1.95;;
59907;SDS011;61804;54.926;73.496;2023-06-22T05:28:50;2.50;;;2.05;;
59907;SDS011;61804;54.926;73.496;2023-06-22T05:31:17;2.88;;;1.50;;
59907;SDS011;61804;54.926;73.496;2023-06-22T05:33:47;1.17;;;1.08;;
59907;SDS011;61804;54.926;73.496;2023-06-22T05:36:16;2.78;;;1.85;;
59907;SDS011;61804;54.926;73.496;2023-06-22T05:38:43;1.48;;;1.17;;
59907;SDS011;61804;54.926;73.496;2023-06-22T05:41:10;1.92;;;1.75;;
59907;SDS011;61804;54.926;73.496;2023-06-22T05:43:38;1.27;;;0.85;;
59907;SDS011;61804;54.926;73.496;2023-06-22T05:46:05;1.00;;;1.00;;
59907;SDS011;61804;54.926;73.496;2023-06-22T05:48:32;0.80;;;0.80;;
59907;SDS011;61804;54.926;73.496;2023-06-22T05:51:00;1.88;;;1.23;;
59907;SDS011;61804;54.926;73.496;2023-06-22T05:53:28;7.85;;;7.05;;
59907;SDS011;61804;54.926;73.496;2023-06-22T05:55:55;2.25;;;2.05;;
59907;SDS011;61804;54.926;73.496;2023-06-22T05:58:24;6.57;;;4.18;;
59907;SDS011;61804;54.926;73.496;2023-06-22T06:00:52;2.10;;;1.90;;
59907;SDS011;61804;54.926;73.496;2023-06-22T06:03:19;2.33;;;1.17;;
59907;SDS011;61804;54.926;73.496;2023-06-22T06:05:47;1.52;;;1.15;;
59907;SDS011;61804;54.926;73.496;2023-06-22T06:08:14;2.22;;;1.33;;
59907;SDS011;61804;54.926;73.496;2023-06-22T06:10:42;2.85;;;1.20;;
59907;SDS011;61804;54.926;73.496;2023-06-22T06:13:10;1.52;;;0.77;;
59907;SDS011;61804;54.926;73.496;2023-06-22T06:15:37;1.52;;;1.17;;
59907;SDS011;61804;54.926;73.496;2023-06-22T06:18:06;1.58;;;0.90;;
59907;SDS011;61804;54.926;73.496;2023-06-22T06:20:33;1.52;;;1.15;;
59907;SDS011;61804;54.926;73.496;2023-06-22T06:23:02;3.25;;;1.08;;
59907;SDS011;61804;54.926;73.496;2023-06-22T06:25:31;0.90;;;0.90;;
59907;SDS011;61804;54.926;73.496;2023-06-22T06:27:59;1.98;;;1.70;;
59907;SDS011;61804;54.926;73.496;2023-06-22T06:30:26;2.60;;;1.73;;
59907;SDS011;61804;54.926;73.496;2023-06-22T06:32:54;1.58;;;0.85;;
59907;SDS011;61804;54.926;73.496;2023-06-22T06:35:22;0.98;;;0.93;;
59907;SDS011;61804;54.926;73.496;2023-06-22T06:37:50;1.52;;;0.95;;
59907;SDS011;61804;54.926;73.496;2023-06-22T06:40:18;1.20;;;1.02;;
59907;SDS011;61804;54.926;73.496;2023-06-22T06:42:46;4.05;;;1.02;;
59907;SDS011;61804;54.926;73.496;2023-06-22T06:45:20;8.00;;;1.30;;
59907;SDS011;61804;54.926;73.496;2023-06-22T06:47:49;8.23;;;1.38;;
59907;SDS011;61804;54.926;73.496;2023-06-22T06:50:17;1.05;;;0.98;;
59907;SDS011;61804;54.926;73.496;2023-06-22T06:52:45;2.30;;;1.38;;
59907;SDS011;61804;54.926;73.496;2023-06-22T06:55:12;12.30;;;1.38;;
59907;SDS011;61804;54.926;73.496;2023-06-22T06:57:40;2.55;;;0.98;;
59907;SDS011;61804;54.926;73.496;2023-06-22T07:00:09;0.75;;;0.75;;
59907;SDS011;61804;54.926;73.496;2023-06-22T07:02:39;0.77;;;0.75;;
59907;SDS011;61804;54.926;73.496;2023-06-22T07:05:09;4.07;;;1.05;;
59907;SDS011;61804;54.926;73.496;2023-06-22T07:07:37;6.10;;;0.77;;
59907;SDS011;61804;54.926;73.496;2023-06-22T07:10:06;3.40;;;1.42;;
59907;SDS011;61804;54.926;73.496;2023-06-22T07:12:35;9.27;;;1.88;;
59907;SDS011;61804;54.926;73.496;2023-06-22T07:15:04;0.88;;;0.63;;
59907;SDS011;61804;54.926;73.496;2023-06-22T07:17:36;12.75;;;1.60;;
59907;SDS011;61804;54.926;73.496;2023-06-22T07:20:04;1.73;;;1.50;;
59907;SDS011;61804;54.926;73.496;2023-06-22T07:22:36;1.38;;;1.27;;
59907;SDS011;61804;54.926;73.496;2023-06-22T07:25:04;9.88;;;2.53;;
59907;SDS011;61804;54.926;73.496;2023-06-22T07:27:39;1.23;;;0.80;;
59907;SDS011;61804;54.926;73.496;2023-06-22T07:30:09;6.82;;;2.25;;
59907;SDS011;61804;54.926;73.496;2023-06-22T07:32:37;6.82;;;1.70;;
59907;SDS011;61804;54.926;73.496;2023-06-22T07:35:04;1.88;;;1.17;;
59907;SDS011;61804;54.926;73.496;2023-06-22T07:37:33;4.15;;;1.70;;
59907;SDS011;61804;54.926;73.496;2023-06-22T07:40:01;11.65;;;1.88;;
59907;SDS011;61804;54.926;73.496;2023-06-22T07:42:32;2.63;;;1.77;;
59907;SDS011;61804;54.926;73.496;2023-06-22T07:45:00;2.20;;;1.60;;
59907;SDS011;61804;54.926;73.496;2023-06-22T07:47:30;9.25;;;2.75;;
59907;SDS011;61804;54.926;73.496;2023-06-22T07:50:01;6.90;;;1.60;;
59907;SDS011;61804;54.926;73.496;2023-06-22T07:52:29;4.68;;;1.58;;
59907;SDS011;61804;54.926;73.496;2023-06-22T07:54:57;4.93;;;2.10;;
59907;SDS011;61804;54.926;73.496;2023-06-22T07:57:25;3.42;;;2.15;;
59907;SDS011;61804;54.926;73.496;2023-06-22T08:00:00;6.97;;;1.55;;
59907;SDS011;61804;54.926;73.496;2023-06-22T08:02:40;4.40;;;1.85;;
59907;SDS011;61804;54.926;73.496;2023-06-22T08:05:08;9.27;;;2.05;;
59907;SDS011;61804;54.926;73.496;2023-06-22T08:07:36;5.38;;;1.75;;
59907;SDS011;61804;54.926;73.496;2023-06-22T08:10:10;2.00;;;1.80;;
59907;SDS011;61804;54.926;73.496;2023-06-22T08:12:38;1.77;;;1.20;;
59907;SDS011;61804;54.926;73.496;2023-06-22T08:15:06;1.00;;;0.85;;
59907;SDS011;61804;54.926;73.496;2023-06-22T08:17:35;5.80;;;1.90;;
59907;SDS011;61804;54.926;73.496;2023-06-22T08:20:04;11.90;;;4.43;;
59907;SDS011;61804;54.926;73.496;2023-06-22T08:22:41;3.05;;;2.00;;
59907;SDS011;61804;54.926;73.496;2023-06-22T08:25:09;1.63;;;0.98;;
59907;SDS011;61804;54.926;73.496;2023-06-22T08:27:36;7.00;;;1.63;;
59907;SDS011;61804;54.926;73.496;2023-06-22T08:30:06;2.33;;;1.45;;
59907;SDS011;61804;54.926;73.496;2023-06-22T08:32:34;9.43;;;3.00;;
59907;SDS011;61804;54.926;73.496;2023-06-22T08:35:04;3.22;;;2.30;;
59907;SDS011;61804;54.926;73.496;2023-06-22T08:37:33;4.68;;;2.00;;
59907;SDS011;61804;54.926;73.496;2023-06-22T08:40:03;3.20;;;1.88;;
59907;SDS011;61804;54.926;73.496;2023-06-22T08:42:37;4.63;;;1.67;;
59907;SDS011;61804;54.926;73.496;2023-06-22T08:45:08;8.07;;;2.17;;
59907;SDS011;61804;54.926;73.496;2023-06-22T08:47:35;3.67;;;2.40;;
59907;SDS011;61804;54.926;73.496;2023-06-22T08:50:04;5.20;;;1.58;;
59907;SDS011;61804;54.926;73.496;2023-06-22T08:52:32;3.90;;;1.45;;
59907;SDS011;61804;54.926;73.496;2023-06-22T08:54:59;2.55;;;1.83;;
59907;SDS011;61804;54.926;73.496;2023-06-22T08:57:27;1.88;;;1.30;;
59907;SDS011;61804;54.926;73.496;2023-06-22T08:59:58;1.23;;;1.13;;
59907;SDS011;61804;54.926;73.496;2023-06-22T09:02:28;2.88;;;1.52;;
59907;SDS011;61804;54.926;73.496;2023-06-22T09:04:57;13.70;;;3.60;;
59907;SDS011;61804;54.926;73.496;2023-06-22T09:07:24;4.43;;;2.42;;
59907;SDS011;61804;54.926;73.496;2023-06-22T09:09:52;3.03;;;1.50;;
59907;SDS011;61804;54.926;73.496;2023-06-22T09:12:23;3.55;;;1.48;;
59907;SDS011;61804;54.926;73.496;2023-06-22T09:14:58;4.95;;;1.98;;
59907;SDS011;61804;54.926;73.496;2023-06-22T09:17:27;4.88;;;1.42;;
59907;SDS011;61804;54.926;73.496;2023-06-22T09:19:55;2.03;;;1.50;;
59907;SDS011;61804;54.926;73.496;2023-06-22T09:22:22;6.18;;;1.98;;
59907;SDS011;61804;54.926;73.496;2023-06-22T09:24:56;3.10;;;1.35;;
59907;SDS011;61804;54.926;73.496;2023-06-22T09:27:26;6.15;;;2.65;;
59907;SDS011;61804;54.926;73.496;2023-06-22T09:29:53;3.83;;;2.15;;
59907;SDS011;61804;54.926;73.496;2023-06-22T09:32:21;2.20;;;1.00;;
59907;SDS011;61804;54.926;73.496;2023-06-22T09:34:49;2.15;;;1.45;;
59907;SDS011;61804;54.926;73.496;2023-06-22T09:37:17;5.63;;;3.30;;
59907;SDS011;61804;54.926;73.496;2023-06-22T09:39:44;2.58;;;1.95;;
59907;SDS011;61804;54.926;73.496;2023-06-22T09:42:12;2.17;;;1.98;;
59907;SDS011;61804;54.926;73.496;2023-06-22T09:44:40;10.60;;;3.15;;
59907;SDS011;61804;54.926;73.496;2023-06-22T09:47:07;9.70;;;2.58;;
59907;SDS011;61804;54.926;73.496;2023-06-22T09:49:35;4.60;;;1.90;;
59907;SDS011;61804;54.926;73.496;2023-06-22T09:52:02;2.05;;;1.30;;
59907;SDS011;61804;54.926;73.496;2023-06-22T09:54:30;5.80;;;1.90;;
59907;SDS011;61804;54.926;73.496;2023-06-22T09:56:58;7.90;;;1.30;;
59907;SDS011;61804;54.926;73.496;2023-06-22T09:59:25;4.60;;;2.17;;
59907;SDS011;61804;54.926;73.496;2023-06-22T10:01:54;5.68;;;2.28;;
59907;SDS011;61804;54.926;73.496;2023-06-22T10:04:23;1.08;;;0.88;;
59907;SDS011;61804;54.926;73.496;2023-06-22T10:06:51;3.97;;;1.17;;
59907;SDS011;61804;54.926;73.496;2023-06-22T10:09:18;1.25;;;1.13;;
59907;SDS011;61804;54.926;73.496;2023-06-22T10:11:46;4.22;;;3.58;;
59907;SDS011;61804;54.926;73.496;2023-06-22T10:14:14;5.47;;;3.35;;
59907;SDS011;61804;54.926;73.496;2023-06-22T10:16:48;7.93;;;3.25;;
59907;SDS011;61804;54.926;73.496;2023-06-22T10:19:15;1.05;;;1.00;;
59907;SDS011;61804;54.926;73.496;2023-06-22T10:21:42;5.78;;;1.38;;
59907;SDS011;61804;54.926;73.496;2023-06-22T10:24:09;1.92;;;1.35;;
59907;SDS011;61804;54.926;73.496;2023-06-22T10:26:37;3.38;;;1.85;;
59907;SDS011;61804;54.926;73.496;2023-06-22T10:29:06;2.50;;;1.35;;
59907;SDS011;61804;54.926;73.496;2023-06-22T10:31:33;6.53;;;1.63;;
59907;SDS011;61804;54.926;73.496;2023-06-22T10:34:00;6.60;;;2.72;;
59907;SDS011;61804;54.926;73.496;2023-06-22T10:36:29;2.30;;;1.02;;
59907;SDS011;61804;54.926;73.496;2023-06-22T10:38:56;1.83;;;1.23;;
59907;SDS011;61804;54.926;73.496;2023-06-22T10:41:28;2.25;;;1.27;;
59907;SDS011;61804;54.926;73.496;2023-06-22T10:44:01;1.70;;;1.40;;
59907;SDS011;61804;54.926;73.496;2023-06-22T10:46:29;6.60;;;1.80;;
59907;SDS011;61804;54.926;73.496;2023-06-22T10:48:56;6.22;;;2.08;;
59907;SDS011;61804;54.926;73.496;2023-06-22T10:51:26;3.70;;;1.30;;
59907;SDS011;61804;54.926;73.496;2023-06-22T10:53:55;4.13;;;1.40;;
59907;SDS011;61804;54.926;73.496;2023-06-22T10:56:23;2.00;;;1.25;;
59907;SDS011;61804;54.926;73.496;2023-06-22T10:58:50;6.60;;;0.85;;
59907;SDS011;61804;54.926;73.496;2023-06-22T11:01:18;6.22;;;1.35;;
59907;SDS011;61804;54.926;73.496;2023-06-22T11:03:46;0.80;;;0.80;;
59907;SDS011;61804;54.926;73.496;2023-06-22T11:06:14;6.70;;;2.08;;
59907;SDS011;61804;54.926;73.496;2023-06-22T11:08:43;2.20;;;1.40;;
59907;SDS011;61804;54.926;73.496;2023-06-22T11:11:12;10.65;;;2.50;;
59907;SDS011;61804;54.926;73.496;2023-06-22T11:13:40;7.38;;;2.55;;
59907;SDS011;61804;54.926;73.496;2023-06-22T11:16:07;7.05;;;1.67;;
59907;SDS011;61804;54.926;73.496;2023-06-22T11:18:35;7.57;;;1.92;;
59907;SDS011;61804;54.926;73.496;2023-06-22T11:21:03;21.65;;;4.60;;
59907;SDS011;61804;54.926;73.496;2023-06-22T11:23:31;1.77;;;1.00;;
59907;SDS011;61804;54.926;73.496;2023-06-22T11:26:12;11.55;;;4.28;;
59907;SDS011;61804;54.926;73.496;2023-06-22T11:28:39;9.13;;;1.75;;
59907;SDS011;61804;54.926;73.496;2023-06-22T11:31:06;9.65;;;2.78;;
59907;SDS011;61804;54.926;73.496;2023-06-22T11:33:34;4.90;;;2.55;;
59907;SDS011;61804;54.926;73.496;2023-06-22T11:36:02;13.25;;;1.92;;
59907;SDS011;61804;54.926;73.496;2023-06-22T11:38:30;11.73;;;3.80;;
59907;SDS011;61804;54.926;73.496;2023-06-22T11:40:58;5.90;;;2.42;;
59907;SDS011;61804;54.926;73.496;2023-06-22T11:43:25;0.65;;;0.65;;
59907;SDS011;61804;54.926;73.496;2023-06-22T11:45:53;6.53;;;1.05;;
59907;SDS011;61804;54.926;73.496;2023-06-22T11:48:25;4.35;;;1.83;;
59907;SDS011;61804;54.926;73.496;2023-06-22T11:50:53;2.15;;;1.10;;
59907;SDS011;61804;54.926;73.496;2023-06-22T11:53:21;1.00;;;0.90;;
59907;SDS011;61804;54.926;73.496;2023-06-22T11:55:49;4.07;;;1.52;;
59907;SDS011;61804;54.926;73.496;2023-06-22T11:58:16;1.50;;;1.30;;
59907;SDS011;61804;54.926;73.496;2023-06-22T12:00:45;3.78;;;1.92;;
59907;SDS011;61804;54.926;73.496;2023-06-22T12:03:12;3.20;;;2.17;;
59907;SDS011;61804;54.926;73.496;2023-06-22T12:05:41;5.43;;;1.70;;
59907;SDS011;61804;54.926;73.496;2023-06-22T12:08:09;3.63;;;2.15;;
59907;SDS011;61804;54.926;73.496;2023-06-22T12:10:37;7.07;;;2.88;;
59907;SDS011;61804;54.926;73.496;2023-06-22T12:13:05;11.02;;;4.38;;
59907;SDS011;61804;54.926;73.496;2023-06-22T12:15:32;10.65;;;4.07;;
59907;SDS011;61804;54.926;73.496;2023-06-22T12:18:10;4.47;;;1.48;;
59907;SDS011;61804;54.926;73.496;2023-06-22T12:20:38;14.70;;;3.05;;
59907;SDS011;61804;54.926;73.496;2023-06-22T12:23:08;2.13;;;1.63;;
59907;SDS011;61804;54.926;73.496;2023-06-22T12:25:39;2.42;;;1.85;;
59907;SDS011;61804;54.926;73.496;2023-06-22T12:28:06;6.47;;;3.70;;
59907;SDS011;61804;54.926;73.496;2023-06-22T12:30:34;3.83;;;2.63;;
59907;SDS011;61804;54.926;73.496;2023-06-22T12:33:01;2.67;;;1.80;;
59907;SDS011;61804;54.926;73.496;2023-06-22T12:35:29;13.50;;;3.00;;
59907;SDS011;61804;54.926;73.496;2023-06-22T12:37:56;10.90;;;4.03;;
59907;SDS011;61804;54.926;73.496;2023-06-22T12:40:24;2.88;;;2.22;;
59907;SDS011;61804;54.926;73.496;2023-06-22T12:42:51;7.80;;;3.63;;
59907;SDS011;61804;54.926;73.496;2023-06-22T12:45:20;5.68;;;2.90;;
59907;SDS011;61804;54.926;73.496;2023-06-22T12:47:48;8.00;;;3.75;;
59907;SDS011;61804;54.926;73.496;2023-06-22T12:50:16;8.48;;;3.03;;
59907;SDS011;61804;54.926;73.496;2023-06-22T12:52:44;13.68;;;5.63;;
59907;SDS011;61804;54.926;73.496;2023-06-22T12:55:13;8.48;;;3.50;;
59907;SDS011;61804;54.926;73.496;2023-06-22T12:57:41;21.60;;;17.85;;
59907;SDS011;61804;54.926;73.496;2023-06-22T13:00:08;19.85;;;17.75;;
59907;SDS011;61804;54.926;73.496;2023-06-22T13:02:37;13.02;;;9.57;;
59907;SDS011;61804;54.926;73.496;2023-06-22T13:05:05;8.35;;;6.22;;
59907;SDS011;61804;54.926;73.496;2023-06-22T13:07:33;3.90;;;3.60;;
59907;SDS011;61804;54.926;73.496;2023-06-22T13:10:01;2.10;;;1.92;;
59907;SDS011;61804;54.926;73.496;2023-06-22T13:12:29;3.85;;;1.30;;
59907;SDS011;61804;54.926;73.496;2023-06-22T13:14:58;5.75;;;4.95;;
59907;SDS011;61804;54.926;73.496;2023-06-22T13:17:25;6.80;;;4.35;;
59907;SDS011;61804;54.926;73.496;2023-06-22T13:19:53;6.63;;;4.68;;
59907;SDS011;61804;54.926;73.496;2023-06-22T13:22:28;7.13;;;5.00;;
59907;SDS011;61804;54.926;73.496;2023-06-22T13:24:59;6.13;;;4.40;;
59907;SDS011;61804;54.926;73.496;2023-06-22T13:27:27;10.55;;;6.32;;
59907;SDS011;61804;54.926;73.496;2023-06-22T13:29:54;14.27;;;8.80;;
59907;SDS011;61804;54.926;73.496;2023-06-22T13:32:26;21.67;;;12.07;;
59907;SDS011;61804;54.926;73.496;2023-06-22T13:34:53;21.90;;;15.75;;
59907;SDS011;61804;54.926;73.496;2023-06-22T13:37:21;23.92;;;14.60;;
59907;SDS011;61804;54.926;73.496;2023-06-22T13:39:51;15.93;;;12.35;;
59907;SDS011;61804;54.926;73.496;2023-06-22T13:42:19;7.97;;;6.82;;
59907;SDS011;61804;54.926;73.496;2023-06-22T13:44:47;10.77;;;6.07;;
59907;SDS011;61804;54.926;73.496;2023-06-22T13:47:14;6.78;;;6.05;;
59907;SDS011;61804;54.926;73.496;2023-06-22T13:49:42;11.85;;;8.18;;
59907;SDS011;61804;54.926;73.496;2023-06-22T13:52:09;8.75;;;7.40;;
59907;SDS011;61804;54.926;73.496;2023-06-22T13:54:39;8.05;;;5.45;;
59907;SDS011;61804;54.926;73.496;2023-06-22T13:57:06;7.10;;;4.85;;
59907;SDS011;61804;54.926;73.496;2023-06-22T13:59:34;7.78;;;6.70;;
59907;SDS011;61804;54.926;73.496;2023-06-22T14:02:02;6.45;;;4.60;;
59907;SDS011;61804;54.926;73.496;2023-06-22T14:04:29;7.22;;;3.80;;
59907;SDS011;61804;54.926;73.496;2023-06-22T14:06:57;8.00;;;4.95;;
59907;SDS011;61804;54.926;73.496;2023-06-22T14:09:24;8.93;;;6.18;;
59907;SDS011;61804;54.926;73.496;2023-06-22T14:11:54;8.93;;;6.35;;
59907;SDS011;61804;54.926;73.496;2023-06-22T14:14:21;4.53;;;4.13;;
59907;SDS011;61804;54.926;73.496;2023-06-22T14:16:49;4.20;;;2.72;;
59907;SDS011;61804;54.926;73.496;2023-06-22T14:19:17;2.70;;;1.98;;
59907;SDS011;61804;54.926;73.496;2023-06-22T14:21:45;1.63;;;1.45;;
59907;SDS011;61804;54.926;73.496;2023-06-22T14:24:12;2.33;;;2.10;;
59907;SDS011;61804;54.926;73.496;2023-06-22T14:26:40;2.90;;;2.53;;
59907;SDS011;61804;54.926;73.496;2023-06-22T14:29:07;2.40;;;2.00;;
59907;SDS011;61804;54.926;73.496;2023-06-22T14:31:35;2.20;;;1.60;;
59907;SDS011;61804;54.926;73.496;2023-06-22T14:34:02;7.85;;;2.20;;
59907;SDS011;61804;54.926;73.496;2023-06-22T14:36:31;6.20;;;2.42;;
59907;SDS011;61804;54.926;73.496;2023-06-22T14:39:00;14.13;;;3.78;;
59907;SDS011;61804;54.926;73.496;2023-06-22T14:41:29;3.25;;;2.20;;
59907;SDS011;61804;54.926;73.496;2023-06-22T14:43:57;11.65;;;2.42;;
59907;SDS011;61804;54.926;73.496;2023-06-22T14:46:26;2.42;;;1.50;;
59907;SDS011;61804;54.926;73.496;2023-06-22T14:48:53;4.75;;;1.70;;